Time;durP1;ratioP1;P1;durP2;ratioP2;P2;SDS_P1;SDS_P2;PMS_P1;PMS_P2;Temp;Humidity;BMP_temperature;BMP_pressure;BME280_temperature;BME280_humidity;BME280_pressure;Samples;Min_cycle;Max_cycle;Signal;HPM_P1;HPM_P2
2021/12/17 00:07:14;;;;;;;28.20;14.00;;;9.50;79.50;;;;;;4991818;28;20835;-69
2021/12/17 00:09:43;;;;;;;25.10;13.15;;;9.50;79.60;;;;;;4987198;28;20089;-70
2021/12/17 00:12:11;;;;;;;25.67;13.63;;;9.50;79.50;;;;;;4978831;28;20050;-69
2021/12/17 00:14:41;;;;;;;26.13;14.45;;;9.50;79.50;;;;;;4975859;28;20506;-69
2021/12/17 00:17:14;;;;;;;24.52;13.25;;;9.50;79.60;;;;;;4976029;28;20043;-69
2021/12/17 00:49:26;;;;;;;17.95;10.43;;;9.50;79.50;;;;;;4982825;28;20043;-70
2021/12/17 00:51:56;;;;;;;19.08;10.70;;;9.50;79.50;;;;;;4993128;28;20106;-70
2021/12/17 00:54:31;;;;;;;18.33;11.00;;;9.50;79.50;;;;;;4992917;28;20042;-70
2021/12/17 00:57:00;;;;;;;20.75;11.48;;;9.50;79.50;;;;;;4985147;28;20046;-70
2021/12/17 00:59:27;;;;;;;20.80;12.25;;;9.50;79.50;;;;;;4989112;28;20039;-70
2021/12/17 01:01:55;;;;;;;20.40;10.52;;;9.50;79.50;;;;;;4990456;28;20042;-69
2021/12/17 01:04:20;;;;;;;21.02;11.35;;;9.50;79.50;;;;;;4981713;28;20043;-69
2021/12/17 01:06:47;;;;;;;20.52;11.48;;;9.50;79.50;;;;;;4979447;28;20050;-69
2021/12/17 01:09:16;;;;;;;22.55;11.45;;;9.50;79.40;;;;;;4990172;28;20424;-69
2021/12/17 01:11:42;;;;;;;18.90;10.70;;;9.50;79.50;;;;;;4988561;28;20031;-69
2021/12/17 01:14:09;;;;;;;22.10;11.77;;;9.50;79.50;;;;;;4986996;28;20055;-70
2021/12/17 01:16:35;;;;;;;18.35;10.60;;;9.50;79.50;;;;;;4991105;28;20173;-71
2021/12/17 01:19:15;;;;;;;18.80;10.07;;;9.50;79.50;;;;;;4967689;28;20061;-70
2021/12/17 01:22:01;;;;;;;20.95;10.95;;;9.50;79.50;;;;;;4996893;28;20054;-70
2021/12/17 01:24:42;;;;;;;20.60;10.50;;;9.50;79.50;;;;;;4963121;28;20075;-69
2021/12/17 01:35:24;;;;;;;19.80;11.05;;;9.50;79.60;;;;;;4976458;28;20050;-69
2021/12/17 01:42:59;;;;;;;19.15;10.85;;;9.40;79.60;;;;;;4980844;28;20045;-69
2021/12/17 01:45:29;;;;;;;21.92;12.75;;;9.40;79.60;;;;;;4993742;28;20061;-69
2021/12/17 01:47:55;;;;;;;27.20;14.18;;;9.40;79.60;;;;;;4995048;28;20062;-70
2021/12/17 02:00:59;;;;;;;20.80;12.32;;;9.40;79.70;;;;;;4988788;28;20054;-69
2021/12/17 02:03:26;;;;;;;20.95;11.68;;;9.40;79.70;;;;;;4989056;28;20070;-69
2021/12/17 02:05:51;;;;;;;24.70;13.60;;;9.40;79.70;;;;;;4971354;28;20058;-70
2021/12/17 02:08:17;;;;;;;19.63;11.65;;;9.40;79.60;;;;;;4993284;28;20042;-70
2021/12/17 02:32:08;;;;;;;20.77;11.10;;;9.40;79.40;;;;;;4995568;28;20011;-69
2021/12/17 02:37:08;;;;;;;17.88;10.65;;;9.40;79.60;;;;;;4985208;28;20051;-70
2021/12/17 02:47:35;;;;;;;18.77;10.98;;;9.40;79.50;;;;;;4989751;28;20078;-69
2021/12/17 02:50:02;;;;;;;18.50;10.55;;;9.40;79.50;;;;;;4994635;28;20081;-70
2021/12/17 02:52:30;;;;;;;17.23;10.20;;;9.50;79.60;;;;;;4981304;28;20042;-69
2021/12/17 02:54:58;;;;;;;20.08;10.50;;;9.40;79.50;;;;;;4993640;28;20042;-70
2021/12/17 02:57:25;;;;;;;18.17;10.13;;;9.40;79.50;;;;;;4984111;28;20117;-69
2021/12/17 02:59:52;;;;;;;17.80;10.73;;;9.40;79.50;;;;;;4966200;28;20116;-72
2021/12/17 03:02:23;;;;;;;17.48;9.60;;;9.40;79.50;;;;;;4993248;28;20085;-72
2021/12/17 03:04:50;;;;;;;18.58;10.40;;;9.40;79.50;;;;;;4985573;28;20122;-72
2021/12/17 03:07:16;;;;;;;21.17;10.85;;;9.40;79.50;;;;;;4991996;28;20042;-72
2021/12/17 03:10:15;;;;;;;18.10;10.15;;;9.40;79.50;;;;;;4992386;28;20046;-70
2021/12/17 03:25:32;;;;;;;17.63;10.00;;;9.40;79.30;;;;;;4992960;28;20012;-70
2021/12/17 03:27:58;;;;;;;17.80;11.07;;;9.40;79.60;;;;;;4993578;28;20172;-69
2021/12/17 03:30:24;;;;;;;17.48;9.68;;;9.40;79.50;;;;;;4971810;28;20133;-69
2021/12/17 03:32:49;;;;;;;17.08;9.75;;;9.40;79.50;;;;;;4984751;28;20051;-70
2021/12/17 03:35:15;;;;;;;15.13;9.48;;;9.40;79.40;;;;;;4987412;28;20042;-69
2021/12/17 03:37:40;;;;;;;20.67;10.43;;;9.40;79.40;;;;;;4975405;28;20402;-69
2021/12/17 03:40:06;;;;;;;16.52;9.82;;;9.40;79.40;;;;;;4983131;28;21710;-70
2021/12/17 03:42:32;;;;;;;14.50;8.85;;;9.40;79.40;;;;;;4995063;28;20034;-70
2021/12/17 03:44:58;;;;;;;16.10;8.70;;;9.40;79.40;;;;;;4982489;28;20544;-70
2021/12/17 03:47:23;;;;;;;16.90;9.77;;;9.40;79.40;;;;;;4977643;28;20475;-70
2021/12/17 03:49:49;;;;;;;18.13;9.90;;;9.40;79.40;;;;;;4977383;28;20039;-69
2021/12/17 03:52:16;;;;;;;17.73;9.70;;;9.40;79.30;;;;;;4979194;28;20046;-69
2021/12/17 03:54:43;;;;;;;17.42;9.25;;;9.40;79.30;;;;;;4967695;28;20470;-70
2021/12/17 03:57:12;;;;;;;16.17;9.60;;;9.40;79.30;;;;;;4979610;28;20043;-70
2021/12/17 03:59:37;;;;;;;17.33;8.88;;;9.40;79.30;;;;;;4982438;28;20049;-70
2021/12/17 04:02:03;;;;;;;17.25;9.68;;;9.50;79.40;;;;;;4977394;28;20474;-70
2021/12/17 04:04:29;;;;;;;15.13;9.15;;;9.40;79.30;;;;;;4977792;28;20109;-69
2021/12/17 04:06:55;;;;;;;15.60;9.32;;;9.50;79.30;;;;;;4980896;28;20049;-70
2021/12/17 04:09:22;;;;;;;15.63;8.57;;;9.40;79.30;;;;;;4978684;28;20049;-69
2021/12/17 04:11:48;;;;;;;16.75;9.52;;;9.50;79.30;;;;;;4976221;28;20402;-69
2021/12/17 04:14:14;;;;;;;15.57;8.95;;;9.40;79.30;;;;;;4990084;28;20750;-70
2021/12/17 04:16:39;;;;;;;15.23;9.23;;;9.50;79.30;;;;;;4988848;28;20046;-70
2021/12/17 04:19:05;;;;;;;15.35;9.00;;;9.40;79.30;;;;;;4979799;28;20531;-69
2021/12/17 04:21:31;;;;;;;15.90;8.75;;;9.40;79.30;;;;;;4992583;28;20064;-69
2021/12/17 04:23:57;;;;;;;16.65;9.32;;;9.50;79.30;;;;;;4980236;28;20059;-69
2021/12/17 04:26:25;;;;;;;16.40;9.20;;;9.40;79.30;;;;;;4990770;28;20619;-70
2021/12/17 04:28:52;;;;;;;16.00;9.52;;;9.50;79.30;;;;;;4988885;28;20074;-70
2021/12/17 04:31:26;;;;;;;14.88;8.77;;;9.40;79.30;;;;;;4987750;28;20497;-70
2021/12/17 04:33:51;;;;;;;17.38;9.32;;;9.50;79.30;;;;;;4975909;28;20053;-71
2021/12/17 04:36:23;;;;;;;16.33;10.05;;;9.50;79.30;;;;;;4982349;28;20058;-73
2021/12/17 04:38:50;;;;;;;14.32;8.68;;;9.40;79.30;;;;;;4971348;28;20098;-70
2021/12/17 04:44:13;;;;;;;15.07;8.95;;;9.50;79.30;;;;;;4988990;28;20042;-70
2021/12/17 04:57:27;;;;;;;14.80;8.55;;;9.50;79.30;;;;;;4978444;28;20050;-69
2021/12/17 04:59:57;;;;;;;15.93;9.02;;;9.40;79.20;;;;;;4973635;28;20070;-71
2021/12/17 05:02:23;;;;;;;14.90;8.57;;;9.50;79.30;;;;;;4981801;28;20049;-70
2021/12/17 05:04:48;;;;;;;14.27;8.10;;;9.40;79.20;;;;;;4992365;28;20478;-69
2021/12/17 05:07:14;;;;;;;13.93;8.23;;;9.40;79.10;;;;;;4990410;28;20046;-70
2021/12/17 05:09:51;;;;;;;15.65;9.45;;;9.50;79.20;;;;;;4989599;28;20038;-70
2021/12/17 05:20:44;;;;;;;14.15;7.68;;;9.40;79.20;;;;;;4987391;28;20082;-71
2021/12/17 05:23:09;;;;;;;14.35;8.25;;;9.40;79.20;;;;;;4973528;28;20097;-71
2021/12/17 05:25:35;;;;;;;15.02;8.88;;;9.40;79.20;;;;;;4994669;28;20402;-70
2021/12/17 05:28:02;;;;;;;12.93;7.75;;;9.40;79.20;;;;;;4981529;28;20054;-71
2021/12/17 05:30:30;;;;;;;13.82;8.38;;;9.40;79.20;;;;;;4981533;28;20039;-71
2021/12/17 05:32:56;;;;;;;15.75;8.77;;;9.40;79.20;;;;;;4978741;28;20482;-71
2021/12/17 05:35:23;;;;;;;13.45;7.93;;;9.50;79.20;;;;;;4991259;28;20088;-70
2021/12/17 05:37:48;;;;;;;14.75;8.55;;;9.50;79.30;;;;;;4983032;28;20045;-71
2021/12/17 05:40:14;;;;;;;14.25;8.25;;;9.50;79.20;;;;;;4987664;28;20038;-71
2021/12/17 05:42:42;;;;;;;13.88;8.43;;;9.40;79.20;;;;;;4964791;28;20050;-71
2021/12/17 05:45:21;;;;;;;12.38;7.45;;;9.40;79.20;;;;;;4992565;28;20042;-71
2021/12/17 05:47:47;;;;;;;12.65;8.18;;;9.40;79.20;;;;;;4988744;28;20073;-71
2021/12/17 05:50:12;;;;;;;13.02;7.80;;;9.50;79.20;;;;;;4991361;28;20104;-71
2021/12/17 05:52:38;;;;;;;16.25;8.65;;;9.50;79.20;;;;;;4992504;28;20130;-71
2021/12/17 05:55:04;;;;;;;12.95;7.45;;;9.40;79.50;;;;;;4990273;28;20042;-70
2021/12/17 05:57:30;;;;;;;13.40;7.18;;;9.50;79.20;;;;;;4992121;28;20041;-71
2021/12/17 05:59:55;;;;;;;12.88;7.55;;;9.50;79.20;;;;;;4979097;28;20402;-71
2021/12/17 06:02:21;;;;;;;15.73;8.20;;;9.50;79.20;;;;;;4978490;28;20463;-71
2021/12/17 06:04:46;;;;;;;16.05;8.65;;;9.40;79.10;;;;;;4978982;28;20498;-71
2021/12/17 06:07:12;;;;;;;13.35;8.48;;;9.40;79.10;;;;;;4977964;28;20118;-71
2021/12/17 06:09:38;;;;;;;13.93;8.43;;;9.50;79.10;;;;;;4966265;28;20097;-70
2021/12/17 06:12:04;;;;;;;13.10;8.75;;;9.40;79.10;;;;;;4982396;28;20053;-71
2021/12/17 06:14:30;;;;;;;12.93;7.55;;;9.50;79.10;;;;;;4992531;28;20053;-70
2021/12/17 06:16:57;;;;;;;14.20;8.38;;;9.40;79.10;;;;;;4996405;28;20051;-71
2021/12/17 06:19:22;;;;;;;16.70;9.15;;;9.50;79.10;;;;;;4990782;28;20122;-71
2021/12/17 06:21:48;;;;;;;15.30;8.38;;;9.50;79.10;;;;;;4977203;28;20090;-71
2021/12/17 06:24:14;;;;;;;16.20;9.02;;;9.40;79.00;;;;;;4961945;28;20678;-70
2021/12/17 06:26:40;;;;;;;14.13;7.65;;;9.40;79.00;;;;;;4989712;28;20146;-71
2021/12/17 06:29:06;;;;;;;15.48;9.18;;;9.40;79.00;;;;;;4984394;28;20121;-71
2021/12/17 06:31:31;;;;;;;14.93;8.25;;;9.40;79.00;;;;;;4977706;28;20047;-71
2021/12/17 06:33:57;;;;;;;17.48;9.70;;;9.40;79.00;;;;;;4965612;28;20042;-71
2021/12/17 06:36:23;;;;;;;16.58;9.93;;;9.40;79.00;;;;;;4977488;28;20549;-71
2021/12/17 06:38:48;;;;;;;15.38;8.68;;;9.40;79.00;;;;;;4979681;28;20046;-71
2021/12/17 06:41:14;;;;;;;14.15;8.45;;;9.40;79.00;;;;;;4995358;28;20399;-71
2021/12/17 06:43:42;;;;;;;16.90;8.70;;;9.40;79.00;;;;;;4993892;28;20542;-71
2021/12/17 06:48:40;;;;;;;15.10;8.88;;;9.40;79.00;;;;;;4977474;28;20478;-71
2021/12/17 07:32:16;;;;;;;19.00;10.88;;;9.30;79.10;;;;;;4869463;29;20108;-72
2021/12/17 07:34:13;;;;;;;18.20;9.85;;;9.30;79.10;;;;;;4888836;29;20060;-72
2021/12/17 07:39:22;;;;;;;17.77;10.40;;;9.20;79.10;;;;;;4862161;29;20132;-72
2021/12/17 07:41:48;;;;;;;18.83;11.55;;;9.30;79.20;;;;;;4873320;29;20131;-72
2021/12/17 07:44:13;;;;;;;19.05;11.48;;;9.20;79.10;;;;;;4878262;29;20500;-72
2021/12/17 07:46:39;;;;;;;17.08;10.27;;;9.20;79.10;;;;;;4870821;29;20059;-72
2021/12/17 07:49:05;;;;;;;17.33;9.93;;;9.20;79.20;;;;;;4915729;29;20044;-72
2021/12/17 07:51:30;;;;;;;19.45;11.48;;;9.20;79.20;;;;;;4915192;29;20092;-72
2021/12/17 07:53:56;;;;;;;19.45;10.98;;;9.20;79.10;;;;;;4931276;28;20143;-72
2021/12/17 07:56:25;;;;;;;20.42;11.15;;;9.20;79.20;;;;;;4993151;28;20473;-72
2021/12/17 07:58:51;;;;;;;20.38;11.10;;;9.20;79.20;;;;;;4990922;28;20057;-72
2021/12/17 08:01:16;;;;;;;17.00;9.93;;;9.20;79.20;;;;;;4984674;28;20042;-72
2021/12/17 08:03:43;;;;;;;17.08;10.45;;;9.20;79.20;;;;;;4983218;28;20046;-72
2021/12/17 08:06:09;;;;;;;17.40;10.10;;;9.20;79.30;;;;;;4992724;28;20057;-71
2021/12/17 08:08:35;;;;;;;19.20;11.05;;;9.20;79.30;;;;;;4994533;28;20050;-72
2021/12/17 08:11:00;;;;;;;18.92;9.93;;;9.20;79.30;;;;;;4983616;28;20089;-72
2021/12/17 08:13:30;;;;;;;20.52;11.05;;;9.20;79.40;;;;;;4979858;28;20410;-72
2021/12/17 08:16:15;;;;;;;19.50;10.73;;;9.20;79.40;;;;;;4977235;28;20098;-72
2021/12/17 08:32:05;;;;;;;21.48;10.63;;;9.20;79.50;;;;;;4988095;28;20078;-72
2021/12/17 08:34:31;;;;;;;21.85;11.45;;;9.20;79.50;;;;;;4988977;28;20065;-71
2021/12/17 08:36:57;;;;;;;20.38;10.88;;;9.20;79.50;;;;;;4982760;28;20040;-71
2021/12/17 08:39:25;;;;;;;21.17;10.93;;;9.20;79.50;;;;;;4994230;28;20117;-72
2021/12/17 08:41:53;;;;;;;17.35;9.95;;;9.20;79.60;;;;;;4989913;28;20061;-71
2021/12/17 08:44:19;;;;;;;19.98;10.20;;;9.20;79.50;;;;;;4979533;28;20053;-72
2021/12/17 08:46:45;;;;;;;21.20;10.48;;;9.20;79.60;;;;;;4977790;28;20122;-72
2021/12/17 08:49:10;;;;;;;18.33;10.40;;;9.20;79.60;;;;;;4968991;28;20173;-75
2021/12/17 08:51:37;;;;;;;19.17;10.55;;;9.20;79.60;;;;;;4997080;28;20081;-74
2021/12/17 08:54:04;;;;;;;18.50;10.60;;;9.20;79.60;;;;;;4998100;28;20466;-74
2021/12/17 08:56:35;;;;;;;18.85;10.93;;;9.20;79.60;;;;;;4996279;28;20393;-75
2021/12/17 08:59:05;;;;;;;20.40;11.45;;;9.30;79.80;;;;;;4997909;28;20045;-75
2021/12/17 09:01:31;;;;;;;19.98;11.00;;;9.30;79.80;;;;;;4996162;28;20042;-75
2021/12/17 09:03:57;;;;;;;20.45;11.30;;;9.30;79.80;;;;;;4997935;28;20125;-76
2021/12/17 09:06:26;;;;;;;17.00;10.15;;;9.30;79.80;;;;;;4995614;28;20050;-75
2021/12/17 09:08:56;;;;;;;21.65;10.68;;;9.30;79.80;;;;;;4996161;28;20046;-75
2021/12/17 09:11:27;;;;;;;19.83;11.60;;;9.30;79.80;;;;;;4981521;28;20053;-75
2021/12/17 09:13:55;;;;;;;22.50;12.43;;;9.30;79.90;;;;;;4987963;28;20050;-75
2021/12/17 09:16:21;;;;;;;23.42;12.90;;;9.30;79.80;;;;;;4988981;28;20045;-75
2021/12/17 09:18:49;;;;;;;20.27;11.50;;;9.20;79.80;;;;;;4996682;28;20082;-75
2021/12/17 09:21:15;;;;;;;21.40;11.90;;;9.30;79.90;;;;;;4982543;28;20047;-75
2021/12/17 09:23:42;;;;;;;19.67;11.45;;;9.30;79.90;;;;;;4994632;28;20038;-75
2021/12/17 09:26:09;;;;;;;21.42;12.02;;;9.30;80.00;;;;;;4986335;28;20054;-75
2021/12/17 09:28:35;;;;;;;19.88;11.75;;;9.30;80.00;;;;;;4989570;28;20166;-76
2021/12/17 09:31:00;;;;;;;20.75;10.88;;;9.30;80.00;;;;;;4986004;28;20506;-75
2021/12/17 09:33:26;;;;;;;20.25;11.32;;;9.30;80.00;;;;;;4985637;28;20050;-75
2021/12/17 09:35:52;;;;;;;21.45;12.77;;;9.40;80.10;;;;;;4986041;28;20043;-75
2021/12/17 09:38:19;;;;;;;20.30;11.07;;;9.40;80.10;;;;;;4977518;28;20086;-76
2021/12/17 09:40:45;;;;;;;18.73;11.40;;;9.40;80.20;;;;;;4976651;28;20057;-75
2021/12/17 09:43:11;;;;;;;20.48;11.63;;;9.40;80.20;;;;;;4991117;28;20034;-76
2021/12/17 09:45:37;;;;;;;18.52;11.02;;;9.40;80.20;;;;;;4991461;28;20163;-75
2021/12/17 09:48:03;;;;;;;18.67;11.52;;;9.40;80.20;;;;;;4978420;28;20503;-75
2021/12/17 09:50:30;;;;;;;20.25;11.55;;;9.40;80.20;;;;;;4984740;28;20046;-75
2021/12/17 09:52:56;;;;;;;19.70;11.63;;;9.40;80.20;;;;;;4987164;28;20504;-75
2021/12/17 09:55:22;;;;;;;16.83;10.07;;;9.40;80.20;;;;;;4991990;28;20038;-76
2021/12/17 09:57:48;;;;;;;17.80;9.93;;;9.40;80.20;;;;;;4994600;28;20126;-76
2021/12/17 10:00:23;;;;;;;17.13;9.95;;;9.50;80.30;;;;;;4977391;28;20379;-75
2021/12/17 10:02:50;;;;;;;17.75;9.90;;;9.50;80.40;;;;;;4982131;28;20089;-75
2021/12/17 10:05:20;;;;;;;15.43;9.27;;;9.60;80.40;;;;;;4966683;28;20043;-76
2021/12/17 10:07:47;;;;;;;15.77;9.48;;;9.50;80.40;;;;;;4995025;28;20053;-75
2021/12/17 10:10:15;;;;;;;13.45;8.65;;;9.50;80.30;;;;;;4995865;28;20521;-75
2021/12/17 10:12:41;;;;;;;17.95;9.75;;;9.50;80.30;;;;;;4993467;28;20109;-76
2021/12/17 10:15:07;;;;;;;17.58;9.63;;;9.50;80.30;;;;;;4983031;28;20501;-75
2021/12/17 10:17:49;;;;;;;16.98;9.30;;;9.50;80.40;;;;;;4992779;28;20125;-75
2021/12/17 10:20:15;;;;;;;16.83;9.57;;;9.60;80.40;;;;;;4978671;28;20047;-75
2021/12/17 10:22:45;;;;;;;17.88;9.48;;;9.50;80.40;;;;;;4981080;28;20057;-75
2021/12/17 10:25:12;;;;;;;20.42;10.82;;;9.60;80.50;;;;;;4994345;28;20043;-75
2021/12/17 10:27:42;;;;;;;15.98;9.15;;;9.60;80.40;;;;;;4991610;28;20050;-75
2021/12/17 10:30:16;;;;;;;14.25;8.48;;;9.60;80.50;;;;;;4985770;28;20113;-75
2021/12/17 10:32:54;;;;;;;14.82;9.05;;;9.60;80.60;;;;;;4986158;28;20047;-75
2021/12/17 10:35:26;;;;;;;15.68;8.73;;;9.60;80.60;;;;;;4976611;28;20051;-75
2021/12/17 10:38:04;;;;;;;14.85;8.38;;;9.60;80.60;;;;;;4994384;28;20490;-81
2021/12/17 10:40:32;;;;;;;16.83;9.45;;;9.60;80.70;;;;;;4986005;28;20046;-75
2021/12/17 10:43:12;;;;;;;15.30;9.13;;;9.70;80.60;;;;;;4980341;28;20522;-75
2021/12/17 10:45:43;;;;;;;17.33;10.00;;;9.70;80.80;;;;;;4985099;28;20077;-75
2021/12/17 10:50:53;;;;;;;15.52;9.35;;;9.70;80.80;;;;;;4995840;28;20130;-76
2021/12/17 10:53:25;;;;;;;17.23;9.68;;;9.60;80.60;;;;;;4979946;28;20053;-71
2021/12/17 10:55:53;;;;;;;17.30;10.02;;;9.70;80.70;;;;;;4983896;28;20121;-71
2021/12/17 10:58:19;;;;;;;17.55;9.88;;;9.70;80.70;;;;;;4994074;28;20034;-71
2021/12/17 11:01:02;;;;;;;16.95;10.38;;;9.80;80.70;;;;;;4995576;28;20398;-71
2021/12/17 11:03:29;;;;;;;16.75;9.98;;;9.80;80.80;;;;;;4991354;28;20031;-71
2021/12/17 11:05:55;;;;;;;15.45;8.82;;;9.80;80.70;;;;;;4975868;28;20050;-71
2021/12/17 11:08:30;;;;;;;15.90;9.90;;;9.80;80.70;;;;;;4977105;28;20133;-72
2021/12/17 11:11:06;;;;;;;16.85;9.75;;;9.80;80.70;;;;;;4975869;28;20051;-71
2021/12/17 11:13:33;;;;;;;15.93;9.25;;;9.90;80.80;;;;;;4982792;28;20162;-71
2021/12/17 11:15:59;;;;;;;14.23;9.43;;;9.80;80.70;;;;;;4976119;28;20055;-71
2021/12/17 11:18:26;;;;;;;16.10;9.93;;;9.80;80.70;;;;;;4976806;28;20035;-71
2021/12/17 11:20:55;;;;;;;15.25;9.05;;;9.90;80.70;;;;;;4975830;28;20074;-71
2021/12/17 11:23:22;;;;;;;15.43;9.18;;;9.90;80.70;;;;;;4993198;28;20128;-71
2021/12/17 11:25:50;;;;;;;15.32;9.60;;;9.90;80.60;;;;;;4975586;28;20121;-71
2021/12/17 11:28:17;;;;;;;17.52;11.45;;;9.80;80.60;;;;;;4975735;28;20050;-71
2021/12/17 11:30:46;;;;;;;12.95;8.68;;;9.90;80.60;;;;;;4976788;28;20047;-71
2021/12/17 11:33:12;;;;;;;15.93;9.77;;;9.90;80.60;;;;;;4975594;28;20049;-71
2021/12/17 11:35:42;;;;;;;15.40;9.85;;;10.00;80.60;;;;;;4992694;28;20042;-71
2021/12/17 11:38:14;;;;;;;17.38;10.35;;;10.00;80.70;;;;;;4994910;28;20088;-71
2021/12/17 11:40:52;;;;;;;13.23;8.82;;;10.00;80.70;;;;;;4993003;28;20050;-71
2021/12/17 11:43:57;;;;;;;15.07;9.40;;;10.00;80.70;;;;;;4993859;28;20050;-71
2021/12/17 11:46:28;;;;;;;11.52;7.97;;;10.00;80.70;;;;;;4957691;28;20122;-71
2021/12/17 11:48:57;;;;;;;14.43;8.95;;;10.00;80.70;;;;;;4975830;28;20054;-71
2021/12/17 11:51:26;;;;;;;13.93;8.45;;;10.10;80.80;;;;;;4975226;28;20053;-71
2021/12/17 11:53:52;;;;;;;15.88;8.93;;;10.10;80.80;;;;;;4975453;28;20053;-71
2021/12/17 11:56:35;;;;;;;12.73;8.35;;;10.10;80.70;;;;;;4975948;28;20430;-71
2021/12/17 11:59:01;;;;;;;15.45;9.63;;;10.10;80.70;;;;;;4975249;28;20134;-71
2021/12/17 12:02:01;;;;;;;13.20;8.68;;;10.20;80.70;;;;;;4976091;28;20050;-71
2021/12/17 12:04:32;;;;;;;15.57;9.25;;;10.20;80.70;;;;;;4978037;28;20034;-71
2021/12/17 12:06:59;;;;;;;14.43;8.93;;;10.20;80.70;;;;;;4994360;28;20533;-71
2021/12/17 12:09:55;;;;;;;12.18;7.60;;;10.20;80.70;;;;;;4992892;28;20046;-71
2021/12/17 12:12:21;;;;;;;14.23;9.05;;;10.20;80.60;;;;;;4967542;28;20047;-71
2021/12/17 12:14:47;;;;;;;12.15;7.75;;;10.30;80.70;;;;;;4979249;28;20050;-71
2021/12/17 12:17:13;;;;;;;12.57;8.48;;;10.30;80.70;;;;;;4994602;28;20065;-71
2021/12/17 12:19:49;;;;;;;11.05;7.95;;;10.30;80.70;;;;;;4992878;28;20039;-71
2021/12/17 12:22:29;;;;;;;11.32;7.78;;;10.30;80.70;;;;;;4976593;28;20050;-71
2021/12/17 12:25:29;;;;;;;12.38;7.90;;;10.30;80.70;;;;;;4992624;28;20041;-71
2021/12/17 12:27:55;;;;;;;13.45;8.82;;;10.40;80.60;;;;;;4994469;28;20046;-71
2021/12/17 12:30:42;;;;;;;12.35;7.95;;;10.40;81.10;;;;;;4992720;28;20065;-71
2021/12/17 12:33:10;;;;;;;13.82;8.35;;;10.40;80.60;;;;;;4994429;28;20042;-71
2021/12/17 12:35:36;;;;;;;10.02;7.32;;;10.40;80.60;;;;;;4986573;28;20074;-71
2021/12/17 12:38:16;;;;;;;10.55;7.65;;;10.40;80.60;;;;;;4974701;28;20486;-71
2021/12/17 12:40:49;;;;;;;11.48;7.53;;;10.40;80.60;;;;;;4977911;28;20518;-71
2021/12/17 12:43:27;;;;;;;10.45;7.55;;;10.40;80.60;;;;;;4989291;28;20054;-72
2021/12/17 12:45:53;;;;;;;10.52;6.75;;;10.50;80.60;;;;;;4985055;28;20154;-71
2021/12/17 12:48:39;;;;;;;10.23;7.00;;;10.50;80.60;;;;;;4974702;28;20137;-71
2021/12/17 12:51:17;;;;;;;10.43;7.22;;;10.50;80.50;;;;;;4975878;28;20055;-71
2021/12/17 12:54:06;;;;;;;9.43;7.18;;;10.50;80.50;;;;;;4957258;28;20046;-71
2021/12/17 12:56:32;;;;;;;9.55;6.97;;;10.50;80.40;;;;;;4992251;28;20065;-71
2021/12/17 12:58:58;;;;;;;12.38;7.88;;;10.50;80.50;;;;;;4976982;28;20046;-71
2021/12/17 13:01:24;;;;;;;10.88;7.13;;;10.60;80.50;;;;;;4992266;28;20414;-71
2021/12/17 13:03:49;;;;;;;12.02;8.05;;;10.50;80.50;;;;;;4994100;28;20091;-71
2021/12/17 13:06:20;;;;;;;11.48;7.43;;;10.60;80.50;;;;;;4984710;28;20074;-71
2021/12/17 13:09:12;;;;;;;10.32;7.60;;;10.60;80.50;;;;;;4957147;28;20119;-71
2021/12/17 13:11:45;;;;;;;11.65;7.07;;;10.60;80.30;;;;;;4980929;28;20057;-71
2021/12/17 13:14:17;;;;;;;10.80;7.43;;;10.50;80.40;;;;;;4993960;28;20505;-71
2021/12/17 13:16:55;;;;;;;12.63;7.85;;;10.60;80.30;;;;;;4982738;28;20051;-72
2021/12/17 13:22:26;;;;;;;10.65;7.50;;;10.60;80.20;;;;;;4975671;28;20137;-71
2021/12/17 13:24:50;;;;;;;12.15;9.18;;;10.70;80.20;;;;;;4983105;28;20097;-71
2021/12/17 13:27:16;;;;;;;12.55;7.70;;;10.60;80.20;;;;;;4978665;28;20418;-71
2021/12/17 13:29:44;;;;;;;10.02;7.20;;;10.60;80.10;;;;;;4974336;28;20039;-71
2021/12/17 13:32:19;;;;;;;12.05;8.32;;;10.60;80.10;;;;;;4987364;28;20521;-71
2021/12/17 13:34:48;;;;;;;9.68;7.68;;;10.60;80.20;;;;;;4996061;28;20451;-71
2021/12/17 13:37:20;;;;;;;10.73;7.50;;;10.60;80.20;;;;;;4978025;28;20515;-76
2021/12/17 13:39:57;;;;;;;11.18;7.22;;;10.60;80.20;;;;;;4983784;28;20490;-76
2021/12/17 13:42:33;;;;;;;11.82;7.75;;;10.60;80.20;;;;;;4965417;28;20430;-76
2021/12/17 13:45:02;;;;;;;11.73;8.93;;;10.60;80.20;;;;;;4977763;28;20078;-77
2021/12/17 13:47:36;;;;;;;12.30;8.75;;;10.60;80.20;;;;;;4991464;28;20085;-76
2021/12/17 13:50:18;;;;;;;12.73;9.23;;;10.60;80.30;;;;;;4979425;28;20126;-76
2021/12/17 13:52:54;;;;;;;9.52;7.10;;;10.60;80.20;;;;;;4984174;28;20050;-77
2021/12/17 13:55:34;;;;;;;9.73;7.63;;;10.60;80.30;;;;;;4977113;28;20101;-76
2021/12/17 13:58:05;;;;;;;8.80;6.72;;;10.60;80.30;;;;;;4989742;28;20050;-77
2021/12/17 14:00:36;;;;;;;9.35;7.18;;;10.50;80.10;;;;;;4990077;28;20050;-76
2021/12/17 14:03:03;;;;;;;9.40;7.43;;;10.50;80.10;;;;;;4971822;28;20072;-76
2021/12/17 14:05:40;;;;;;;10.02;7.75;;;10.50;80.10;;;;;;4973487;28;20477;-76
2021/12/17 14:08:13;;;;;;;11.15;8.35;;;10.50;80.10;;;;;;4981535;28;20082;-76
2021/12/17 14:10:40;;;;;;;13.88;9.45;;;10.50;80.10;;;;;;4973241;28;20506;-76
2021/12/17 14:13:19;;;;;;;10.73;8.55;;;10.50;80.10;;;;;;4980694;28;20635;-77
2021/12/17 14:15:46;;;;;;;13.57;9.52;;;10.50;80.20;;;;;;4992432;28;20057;-76
2021/12/17 14:18:17;;;;;;;10.20;7.97;;;10.50;80.20;;;;;;4978751;28;20054;-76
2021/12/17 14:20:49;;;;;;;12.68;10.45;;;10.60;80.30;;;;;;4992500;28;20046;-77
2021/12/17 14:23:17;;;;;;;10.90;8.50;;;10.50;80.20;;;;;;4980241;28;20051;-76
2021/12/17 14:25:47;;;;;;;12.48;8.68;;;10.50;80.10;;;;;;4972623;28;20383;-77
2021/12/17 14:28:23;;;;;;;11.40;8.25;;;10.50;80.10;;;;;;4984808;28;20057;-76
2021/12/17 14:31:09;;;;;;;12.35;9.57;;;10.50;80.10;;;;;;4980597;28;20265;-75
2021/12/17 14:33:40;;;;;;;13.32;8.77;;;10.60;80.10;;;;;;4976576;28;20078;-77
2021/12/17 14:36:14;;;;;;;11.25;7.35;;;10.50;80.10;;;;;;4961972;28;20042;-77
2021/12/17 14:38:45;;;;;;;9.02;7.07;;;10.50;80.10;;;;;;4991390;28;20132;-76
2021/12/17 14:41:16;;;;;;;8.30;6.63;;;10.50;80.10;;;;;;4990159;28;20156;-76
2021/12/17 14:44:01;;;;;;;9.10;6.80;;;10.50;80.10;;;;;;4980710;28;20149;-76
2021/12/17 14:46:39;;;;;;;7.55;6.22;;;10.50;80.10;;;;;;4973324;28;20054;-77
2021/12/17 15:03:29;;;;;;;8.73;5.90;;;10.40;79.90;;;;;;4864059;29;20608;-74
2021/12/17 15:05:58;;;;;;;7.85;6.80;;;10.40;80.00;;;;;;4855641;29;20045;-75
2021/12/17 15:08:25;;;;;;;9.60;7.20;;;10.40;79.90;;;;;;4862923;29;20490;-75
2021/12/17 15:10:51;;;;;;;8.32;6.60;;;10.50;80.40;;;;;;4858098;29;20065;-75
2021/12/17 15:13:17;;;;;;;10.32;7.20;;;10.40;79.90;;;;;;4874057;29;20057;-75
2021/12/17 15:15:43;;;;;;;7.15;5.72;;;10.40;79.90;;;;;;4874326;29;20412;-75
2021/12/17 15:18:16;;;;;;;6.82;5.28;;;10.40;79.90;;;;;;4865270;29;20051;-75
2021/12/17 15:20:45;;;;;;;7.00;5.57;;;10.30;79.90;;;;;;4853732;29;20053;-76
2021/12/17 15:23:12;;;;;;;8.68;6.22;;;10.30;80.00;;;;;;4871961;29;20053;-76
2021/12/17 15:25:39;;;;;;;8.25;5.50;;;10.30;79.90;;;;;;4859253;29;20058;-76
2021/12/17 15:28:06;;;;;;;6.82;5.55;;;10.30;80.40;;;;;;4870858;28;20128;-77
2021/12/17 15:30:41;;;;;;;7.68;5.80;;;10.30;80.00;;;;;;4982470;28;20418;-78
2021/12/17 15:33:07;;;;;;;7.93;6.03;;;10.30;80.00;;;;;;4983728;28;20564;-75
2021/12/17 15:35:34;;;;;;;7.15;5.65;;;10.30;79.90;;;;;;4990768;28;20145;-76
2021/12/17 15:38:00;;;;;;;7.60;6.47;;;10.30;79.90;;;;;;4986267;28;20050;-76
2021/12/17 15:40:27;;;;;;;6.25;5.32;;;10.30;79.80;;;;;;4988424;28;20743;-76
2021/12/17 15:42:54;;;;;;;7.25;5.40;;;10.30;79.70;;;;;;4973172;28;20051;-75
2021/12/17 15:45:20;;;;;;;6.47;5.22;;;10.30;79.60;;;;;;4983085;28;20050;-75
2021/12/17 15:47:47;;;;;;;7.75;5.38;;;10.20;79.60;;;;;;4980556;28;20393;-71
2021/12/17 15:50:14;;;;;;;8.00;5.93;;;10.20;79.70;;;;;;4983041;28;20061;-71
2021/12/17 15:52:47;;;;;;;7.70;5.32;;;10.20;79.80;;;;;;4977234;28;20379;-72
2021/12/17 15:55:15;;;;;;;7.75;5.53;;;10.20;79.80;;;;;;4969241;28;20049;-72
2021/12/17 15:57:41;;;;;;;6.97;5.63;;;10.20;79.90;;;;;;4973478;28;20051;-72
2021/12/17 16:00:08;;;;;;;12.25;8.65;;;10.20;79.90;;;;;;4975488;28;20088;-72
2021/12/17 16:02:35;;;;;;;10.18;7.90;;;10.20;79.90;;;;;;4975240;28;20078;-72
2021/12/17 16:05:02;;;;;;;10.02;7.82;;;10.20;80.00;;;;;;4976078;28;20097;-73
2021/12/17 16:07:28;;;;;;;11.23;8.90;;;10.20;80.00;;;;;;4954286;28;20138;-73
2021/12/17 16:10:48;;;;;;;12.43;10.15;;;10.20;80.00;;;;;;4979925;28;20133;-71
2021/12/17 16:21:00;;;;;;;10.25;7.82;;;10.20;80.50;;;;;;4973043;28;20051;-70
2021/12/17 16:21:07;;;;;;;9.98;8.25;;;10.10;80.00;;;;;;4971010;28;20473;-70
2021/12/17 16:23:38;;;;;;;9.85;7.35;;;10.10;80.00;;;;;;4984323;28;20062;-71